sensor_id;sensor_type;location;lat;lon;timestamp;P1;durP1;ratioP1;P2;durP2;ratioP2
3791;SDS011;1911;53.768;11.474;2024-03-06T00:00:56;14.03;;;5.47;;
3791;SDS011;1911;53.768;11.474;2024-03-06T00:03:22;7.10;;;5.03;;
3791;SDS011;1911;53.768;11.474;2024-03-06T00:05:47;12.63;;;5.60;;
3791;SDS011;1911;53.768;11.474;2024-03-06T00:08:13;6.47;;;4.77;;
3791;SDS011;1911;53.768;11.474;2024-03-06T00:10:40;7.37;;;4.87;;
3791;SDS011;1911;53.768;11.474;2024-03-06T00:13:06;7.77;;;4.80;;
3791;SDS011;1911;53.768;11.474;2024-03-06T00:15:32;9.23;;;4.60;;
3791;SDS011;1911;53.768;11.474;2024-03-06T00:17:57;8.93;;;5.53;;
3791;SDS011;1911;53.768;11.474;2024-03-06T00:20:23;7.90;;;4.40;;
3791;SDS011;1911;53.768;11.474;2024-03-06T00:22:49;13.03;;;4.57;;
3791;SDS011;1911;53.768;11.474;2024-03-06T00:25:14;7.90;;;4.73;;
3791;SDS011;1911;53.768;11.474;2024-03-06T00:27:40;5.93;;;4.23;;
3791;SDS011;1911;53.768;11.474;2024-03-06T00:30:06;9.17;;;4.63;;
3791;SDS011;1911;53.768;11.474;2024-03-06T00:32:32;6.40;;;4.40;;
3791;SDS011;1911;53.768;11.474;2024-03-06T00:34:58;7.43;;;4.53;;
3791;SDS011;1911;53.768;11.474;2024-03-06T00:37:23;7.20;;;3.83;;
3791;SDS011;1911;53.768;11.474;2024-03-06T00:39:49;7.13;;;4.90;;
3791;SDS011;1911;53.768;11.474;2024-03-06T00:42:15;7.30;;;4.70;;
3791;SDS011;1911;53.768;11.474;2024-03-06T00:44:40;8.40;;;4.70;;
3791;SDS011;1911;53.768;11.474;2024-03-06T00:47:06;7.40;;;5.50;;
3791;SDS011;1911;53.768;11.474;2024-03-06T00:49:32;9.60;;;5.30;;
3791;SDS011;1911;53.768;11.474;2024-03-06T00:51:57;7.93;;;5.30;;
3791;SDS011;1911;53.768;11.474;2024-03-06T00:54:23;7.90;;;5.83;;
3791;SDS011;1911;53.768;11.474;2024-03-06T00:56:48;7.60;;;5.67;;
3791;SDS011;1911;53.768;11.474;2024-03-06T00:59:14;8.40;;;5.53;;
3791;SDS011;1911;53.768;11.474;2024-03-06T01:01:39;8.77;;;4.90;;
3791;SDS011;1911;53.768;11.474;2024-03-06T01:04:06;10.10;;;5.87;;
3791;SDS011;1911;53.768;11.474;2024-03-06T01:06:32;11.23;;;6.37;;
3791;SDS011;1911;53.768;11.474;2024-03-06T01:08:58;9.40;;;5.40;;
3791;SDS011;1911;53.768;11.474;2024-03-06T01:11:24;8.30;;;5.37;;
3791;SDS011;1911;53.768;11.474;2024-03-06T01:13:51;6.30;;;5.43;;
3791;SDS011;1911;53.768;11.474;2024-03-06T01:16:17;10.90;;;5.60;;
3791;SDS011;1911;53.768;11.474;2024-03-06T01:18:43;8.27;;;5.57;;
3791;SDS011;1911;53.768;11.474;2024-03-06T01:21:08;8.23;;;6.10;;
3791;SDS011;1911;53.768;11.474;2024-03-06T01:23:34;9.63;;;5.70;;
3791;SDS011;1911;53.768;11.474;2024-03-06T01:25:59;8.43;;;5.20;;
3791;SDS011;1911;53.768;11.474;2024-03-06T01:28:25;8.17;;;5.77;;
3791;SDS011;1911;53.768;11.474;2024-03-06T01:30:51;8.10;;;5.30;;
3791;SDS011;1911;53.768;11.474;2024-03-06T01:33:16;10.70;;;5.87;;
3791;SDS011;1911;53.768;11.474;2024-03-06T01:35:42;10.20;;;5.10;;
3791;SDS011;1911;53.768;11.474;2024-03-06T01:38:08;8.20;;;5.13;;
3791;SDS011;1911;53.768;11.474;2024-03-06T01:40:35;8.33;;;5.50;;
3791;SDS011;1911;53.768;11.474;2024-03-06T01:43:00;8.03;;;5.20;;
3791;SDS011;1911;53.768;11.474;2024-03-06T01:45:26;9.90;;;6.10;;
3791;SDS011;1911;53.768;11.474;2024-03-06T01:47:52;7.70;;;5.50;;
3791;SDS011;1911;53.768;11.474;2024-03-06T01:50:18;8.10;;;6.50;;
3791;SDS011;1911;53.768;11.474;2024-03-06T01:52:43;9.83;;;6.60;;
3791;SDS011;1911;53.768;11.474;2024-03-06T01:55:11;8.10;;;5.27;;
3791;SDS011;1911;53.768;11.474;2024-03-06T01:57:38;9.57;;;6.50;;
3791;SDS011;1911;53.768;11.474;2024-03-06T02:00:08;8.40;;;5.30;;
3791;SDS011;1911;53.768;11.474;2024-03-06T02:10:17;8.33;;;5.77;;
3791;SDS011;1911;53.768;11.474;2024-03-06T02:12:42;8.57;;;5.67;;
3791;SDS011;1911;53.768;11.474;2024-03-06T02:15:08;8.27;;;5.40;;
3791;SDS011;1911;53.768;11.474;2024-03-06T02:17:34;8.27;;;6.40;;
3791;SDS011;1911;53.768;11.474;2024-03-06T02:20:01;8.50;;;6.03;;
3791;SDS011;1911;53.768;11.474;2024-03-06T02:22:30;7.37;;;5.00;;
3791;SDS011;1911;53.768;11.474;2024-03-06T02:24:57;7.20;;;5.17;;
3791;SDS011;1911;53.768;11.474;2024-03-06T02:27:23;10.30;;;6.57;;
3791;SDS011;1911;53.768;11.474;2024-03-06T02:29:48;9.57;;;5.97;;
3791;SDS011;1911;53.768;11.474;2024-03-06T02:32:14;8.80;;;5.80;;
3791;SDS011;1911;53.768;11.474;2024-03-06T02:34:40;10.03;;;6.33;;
3791;SDS011;1911;53.768;11.474;2024-03-06T02:37:06;9.00;;;6.13;;
3791;SDS011;1911;53.768;11.474;2024-03-06T02:39:31;10.80;;;6.33;;
3791;SDS011;1911;53.768;11.474;2024-03-06T02:41:57;6.97;;;5.27;;
3791;SDS011;1911;53.768;11.474;2024-03-06T02:44:22;10.43;;;6.40;;
3791;SDS011;1911;53.768;11.474;2024-03-06T02:46:48;7.20;;;5.57;;
3791;SDS011;1911;53.768;11.474;2024-03-06T02:49:15;7.50;;;5.53;;
3791;SDS011;1911;53.768;11.474;2024-03-06T02:51:41;9.30;;;6.00;;
3791;SDS011;1911;53.768;11.474;2024-03-06T02:54:06;7.30;;;5.23;;
3791;SDS011;1911;53.768;11.474;2024-03-06T02:56:32;9.07;;;5.93;;
3791;SDS011;1911;53.768;11.474;2024-03-06T02:58:57;11.67;;;6.70;;
3791;SDS011;1911;53.768;11.474;2024-03-06T03:01:23;10.00;;;5.97;;
3791;SDS011;1911;53.768;11.474;2024-03-06T03:03:49;7.80;;;5.33;;
3791;SDS011;1911;53.768;11.474;2024-03-06T03:06:16;8.70;;;6.73;;
3791;SDS011;1911;53.768;11.474;2024-03-06T03:08:42;8.20;;;5.47;;
3791;SDS011;1911;53.768;11.474;2024-03-06T03:11:07;18.40;;;5.90;;
3791;SDS011;1911;53.768;11.474;2024-03-06T03:13:33;14.70;;;5.53;;
3791;SDS011;1911;53.768;11.474;2024-03-06T03:15:58;9.63;;;6.63;;
3791;SDS011;1911;53.768;11.474;2024-03-06T03:18:24;9.23;;;5.83;;
3791;SDS011;1911;53.768;11.474;2024-03-06T03:20:50;9.03;;;6.23;;
3791;SDS011;1911;53.768;11.474;2024-03-06T03:23:15;14.27;;;5.60;;
3791;SDS011;1911;53.768;11.474;2024-03-06T03:25:46;11.10;;;6.83;;
3791;SDS011;1911;53.768;11.474;2024-03-06T03:28:13;8.53;;;5.20;;
3791;SDS011;1911;53.768;11.474;2024-03-06T03:30:39;9.63;;;6.10;;
3791;SDS011;1911;53.768;11.474;2024-03-06T03:33:04;6.20;;;5.60;;
3791;SDS011;1911;53.768;11.474;2024-03-06T03:35:30;6.00;;;4.83;;
3791;SDS011;1911;53.768;11.474;2024-03-06T03:37:56;8.47;;;6.00;;
3791;SDS011;1911;53.768;11.474;2024-03-06T03:40:22;9.20;;;6.20;;
3791;SDS011;1911;53.768;11.474;2024-03-06T03:42:48;7.10;;;5.37;;
3791;SDS011;1911;53.768;11.474;2024-03-06T03:45:13;9.70;;;6.70;;
3791;SDS011;1911;53.768;11.474;2024-03-06T03:47:39;8.43;;;6.20;;
3791;SDS011;1911;53.768;11.474;2024-03-06T03:50:08;9.30;;;6.20;;
3791;SDS011;1911;53.768;11.474;2024-03-06T03:52:34;9.43;;;6.13;;
3791;SDS011;1911;53.768;11.474;2024-03-06T03:54:59;11.00;;;6.37;;
3791;SDS011;1911;53.768;11.474;2024-03-06T03:57:25;10.80;;;6.87;;
3791;SDS011;1911;53.768;11.474;2024-03-06T03:59:51;10.03;;;5.53;;
3791;SDS011;1911;53.768;11.474;2024-03-06T04:02:16;9.00;;;6.73;;
3791;SDS011;1911;53.768;11.474;2024-03-06T04:04:42;11.10;;;6.10;;
3791;SDS011;1911;53.768;11.474;2024-03-06T04:07:08;9.10;;;5.70;;
3791;SDS011;1911;53.768;11.474;2024-03-06T04:09:33;10.20;;;6.20;;
3791;SDS011;1911;53.768;11.474;2024-03-06T04:12:02;7.70;;;5.03;;
3791;SDS011;1911;53.768;11.474;2024-03-06T04:14:28;9.30;;;5.40;;
3791;SDS011;1911;53.768;11.474;2024-03-06T04:16:55;9.00;;;5.50;;
3791;SDS011;1911;53.768;11.474;2024-03-06T04:19:21;7.20;;;5.37;;
3791;SDS011;1911;53.768;11.474;2024-03-06T04:21:46;7.40;;;5.80;;
3791;SDS011;1911;53.768;11.474;2024-03-06T04:24:12;7.50;;;5.70;;
3791;SDS011;1911;53.768;11.474;2024-03-06T04:26:37;10.10;;;6.20;;
3791;SDS011;1911;53.768;11.474;2024-03-06T04:29:03;10.60;;;6.13;;
3791;SDS011;1911;53.768;11.474;2024-03-06T04:31:29;10.00;;;5.97;;
3791;SDS011;1911;53.768;11.474;2024-03-06T04:33:54;10.63;;;6.17;;
3791;SDS011;1911;53.768;11.474;2024-03-06T04:36:20;10.97;;;5.80;;
3791;SDS011;1911;53.768;11.474;2024-03-06T04:38:45;9.20;;;5.90;;
3791;SDS011;1911;53.768;11.474;2024-03-06T04:41:11;7.20;;;5.90;;
3791;SDS011;1911;53.768;11.474;2024-03-06T04:43:37;9.63;;;6.00;;
3791;SDS011;1911;53.768;11.474;2024-03-06T04:46:03;8.27;;;6.27;;
3791;SDS011;1911;53.768;11.474;2024-03-06T04:48:29;7.73;;;5.93;;
3791;SDS011;1911;53.768;11.474;2024-03-06T04:50:55;7.70;;;5.53;;
3791;SDS011;1911;53.768;11.474;2024-03-06T04:53:20;9.40;;;6.70;;
3791;SDS011;1911;53.768;11.474;2024-03-06T04:55:46;8.07;;;6.03;;
3791;SDS011;1911;53.768;11.474;2024-03-06T04:58:12;10.00;;;6.50;;
3791;SDS011;1911;53.768;11.474;2024-03-06T05:00:37;7.83;;;5.83;;
3791;SDS011;1911;53.768;11.474;2024-03-06T05:03:03;6.97;;;5.47;;
3791;SDS011;1911;53.768;11.474;2024-03-06T05:05:30;10.70;;;6.23;;
3791;SDS011;1911;53.768;11.474;2024-03-06T05:07:57;10.77;;;6.70;;
3791;SDS011;1911;53.768;11.474;2024-03-06T05:10:22;8.10;;;6.20;;
3791;SDS011;1911;53.768;11.474;2024-03-06T05:12:48;10.10;;;6.70;;
3791;SDS011;1911;53.768;11.474;2024-03-06T05:15:14;9.30;;;5.73;;
3791;SDS011;1911;53.768;11.474;2024-03-06T05:17:39;5.77;;;5.17;;
3791;SDS011;1911;53.768;11.474;2024-03-06T05:20:05;7.73;;;6.00;;
3791;SDS011;1911;53.768;11.474;2024-03-06T05:22:31;8.50;;;5.70;;
3791;SDS011;1911;53.768;11.474;2024-03-06T05:24:57;9.50;;;6.30;;
3791;SDS011;1911;53.768;11.474;2024-03-06T05:27:23;9.83;;;6.17;;
3791;SDS011;1911;53.768;11.474;2024-03-06T05:29:49;9.40;;;5.73;;
3791;SDS011;1911;53.768;11.474;2024-03-06T05:32:15;10.93;;;6.63;;
3791;SDS011;1911;53.768;11.474;2024-03-06T05:34:41;8.80;;;6.07;;
3791;SDS011;1911;53.768;11.474;2024-03-06T05:37:06;10.27;;;6.67;;
3791;SDS011;1911;53.768;11.474;2024-03-06T05:39:32;9.50;;;6.70;;
3791;SDS011;1911;53.768;11.474;2024-03-06T05:42:05;7.20;;;5.30;;
3791;SDS011;1911;53.768;11.474;2024-03-06T05:44:31;9.50;;;6.30;;
3791;SDS011;1911;53.768;11.474;2024-03-06T05:47:00;8.37;;;5.47;;
3791;SDS011;1911;53.768;11.474;2024-03-06T05:49:27;12.03;;;6.27;;
3791;SDS011;1911;53.768;11.474;2024-03-06T05:51:53;12.83;;;7.53;;
3791;SDS011;1911;53.768;11.474;2024-03-06T05:54:20;9.50;;;6.00;;
3791;SDS011;1911;53.768;11.474;2024-03-06T05:56:49;9.00;;;5.87;;
3791;SDS011;1911;53.768;11.474;2024-03-06T05:59:18;12.17;;;5.90;;
3791;SDS011;1911;53.768;11.474;2024-03-06T06:01:44;9.70;;;5.97;;
3791;SDS011;1911;53.768;11.474;2024-03-06T06:04:10;10.20;;;5.90;;
3791;SDS011;1911;53.768;11.474;2024-03-06T06:06:37;7.93;;;5.57;;
3791;SDS011;1911;53.768;11.474;2024-03-06T06:09:02;9.93;;;5.93;;
3791;SDS011;1911;53.768;11.474;2024-03-06T06:11:31;8.67;;;5.90;;
3791;SDS011;1911;53.768;11.474;2024-03-06T06:14:00;7.70;;;6.03;;
3791;SDS011;1911;53.768;11.474;2024-03-06T06:16:26;8.33;;;5.83;;
3791;SDS011;1911;53.768;11.474;2024-03-06T06:18:52;10.33;;;5.77;;
3791;SDS011;1911;53.768;11.474;2024-03-06T06:21:17;8.53;;;5.50;;
3791;SDS011;1911;53.768;11.474;2024-03-06T06:23:43;7.40;;;5.97;;
3791;SDS011;1911;53.768;11.474;2024-03-06T06:26:09;6.40;;;5.50;;
3791;SDS011;1911;53.768;11.474;2024-03-06T06:28:35;7.87;;;5.10;;
3791;SDS011;1911;53.768;11.474;2024-03-06T06:31:02;9.23;;;5.83;;
3791;SDS011;1911;53.768;11.474;2024-03-06T06:33:29;8.00;;;6.03;;
3791;SDS011;1911;53.768;11.474;2024-03-06T06:35:54;6.00;;;5.00;;
3791;SDS011;1911;53.768;11.474;2024-03-06T06:38:20;9.20;;;5.80;;
3791;SDS011;1911;53.768;11.474;2024-03-06T06:40:45;9.43;;;6.13;;
3791;SDS011;1911;53.768;11.474;2024-03-06T06:43:11;9.37;;;6.00;;
3791;SDS011;1911;53.768;11.474;2024-03-06T06:45:37;12.27;;;6.70;;
3791;SDS011;1911;53.768;11.474;2024-03-06T06:48:06;8.40;;;6.10;;
3791;SDS011;1911;53.768;11.474;2024-03-06T06:50:33;8.10;;;5.47;;
3791;SDS011;1911;53.768;11.474;2024-03-06T06:53:02;9.80;;;5.93;;
3791;SDS011;1911;53.768;11.474;2024-03-06T06:55:27;10.37;;;5.57;;
3791;SDS011;1911;53.768;11.474;2024-03-06T06:57:53;6.80;;;5.37;;
3791;SDS011;1911;53.768;11.474;2024-03-06T07:00:19;7.30;;;5.70;;
3791;SDS011;1911;53.768;11.474;2024-03-06T07:02:47;7.50;;;5.67;;
3791;SDS011;1911;53.768;11.474;2024-03-06T07:05:12;8.33;;;5.60;;
3791;SDS011;1911;53.768;11.474;2024-03-06T07:07:38;7.77;;;5.20;;
3791;SDS011;1911;53.768;11.474;2024-03-06T07:10:04;7.40;;;5.27;;
3791;SDS011;1911;53.768;11.474;2024-03-06T07:12:30;7.67;;;4.80;;
3791;SDS011;1911;53.768;11.474;2024-03-06T07:14:56;5.60;;;5.03;;
3791;SDS011;1911;53.768;11.474;2024-03-06T07:17:23;9.07;;;6.00;;
3791;SDS011;1911;53.768;11.474;2024-03-06T07:19:48;7.37;;;5.60;;
3791;SDS011;1911;53.768;11.474;2024-03-06T07:22:15;6.83;;;4.70;;
3791;SDS011;1911;53.768;11.474;2024-03-06T07:24:41;6.63;;;5.00;;
3791;SDS011;1911;53.768;11.474;2024-03-06T07:27:07;7.40;;;5.20;;
3791;SDS011;1911;53.768;11.474;2024-03-06T07:29:36;8.40;;;5.70;;
3791;SDS011;1911;53.768;11.474;2024-03-06T07:32:02;6.47;;;4.40;;
3791;SDS011;1911;53.768;11.474;2024-03-06T07:34:28;7.60;;;5.47;;
3791;SDS011;1911;53.768;11.474;2024-03-06T07:36:53;5.97;;;4.37;;
3791;SDS011;1911;53.768;11.474;2024-03-06T07:39:19;9.70;;;5.80;;
3791;SDS011;1911;53.768;11.474;2024-03-06T07:41:45;7.90;;;5.37;;
3791;SDS011;1911;53.768;11.474;2024-03-06T07:44:11;7.50;;;5.37;;
3791;SDS011;1911;53.768;11.474;2024-03-06T07:46:37;7.43;;;5.10;;
3791;SDS011;1911;53.768;11.474;2024-03-06T07:49:03;6.63;;;5.23;;
3791;SDS011;1911;53.768;11.474;2024-03-06T07:51:29;8.33;;;6.27;;
3791;SDS011;1911;53.768;11.474;2024-03-06T07:53:56;6.20;;;4.80;;
3791;SDS011;1911;53.768;11.474;2024-03-06T07:56:22;8.50;;;5.83;;
3791;SDS011;1911;53.768;11.474;2024-03-06T07:58:51;6.30;;;4.50;;
3791;SDS011;1911;53.768;11.474;2024-03-06T08:01:17;7.90;;;5.10;;
3791;SDS011;1911;53.768;11.474;2024-03-06T08:03:42;7.07;;;4.93;;
3791;SDS011;1911;53.768;11.474;2024-03-06T08:06:09;8.20;;;4.90;;
3791;SDS011;1911;53.768;11.474;2024-03-06T08:08:35;8.20;;;4.73;;
3791;SDS011;1911;53.768;11.474;2024-03-06T08:11:01;7.50;;;4.87;;
3791;SDS011;1911;53.768;11.474;2024-03-06T08:13:30;7.17;;;4.83;;
3791;SDS011;1911;53.768;11.474;2024-03-06T08:15:55;7.73;;;4.90;;
3791;SDS011;1911;53.768;11.474;2024-03-06T08:18:21;8.57;;;4.90;;
3791;SDS011;1911;53.768;11.474;2024-03-06T08:20:46;8.73;;;5.10;;
3791;SDS011;1911;53.768;11.474;2024-03-06T08:23:12;5.73;;;4.37;;
3791;SDS011;1911;53.768;11.474;2024-03-06T08:25:38;8.20;;;5.33;;
3791;SDS011;1911;53.768;11.474;2024-03-06T08:28:03;7.40;;;4.70;;
3791;SDS011;1911;53.768;11.474;2024-03-06T08:30:30;4.57;;;3.90;;
3791;SDS011;1911;53.768;11.474;2024-03-06T08:32:56;6.87;;;4.20;;
3791;SDS011;1911;53.768;11.474;2024-03-06T08:35:22;7.00;;;5.10;;
3791;SDS011;1911;53.768;11.474;2024-03-06T08:37:48;8.50;;;5.33;;
3791;SDS011;1911;53.768;11.474;2024-03-06T08:40:15;7.03;;;4.73;;
3791;SDS011;1911;53.768;11.474;2024-03-06T08:42:51;10.20;;;4.13;;
3791;SDS011;1911;53.768;11.474;2024-03-06T08:45:17;5.87;;;4.70;;
3791;SDS011;1911;53.768;11.474;2024-03-06T08:47:45;6.30;;;4.27;;
3791;SDS011;1911;53.768;11.474;2024-03-06T08:50:11;6.73;;;4.57;;
3791;SDS011;1911;53.768;11.474;2024-03-06T08:52:37;7.57;;;4.87;;
3791;SDS011;1911;53.768;11.474;2024-03-06T08:55:03;7.07;;;5.20;;
3791;SDS011;1911;53.768;11.474;2024-03-06T08:57:29;7.23;;;5.20;;
3791;SDS011;1911;53.768;11.474;2024-03-06T08:59:56;5.67;;;3.87;;
3791;SDS011;1911;53.768;11.474;2024-03-06T09:02:22;8.40;;;4.93;;
3791;SDS011;1911;53.768;11.474;2024-03-06T09:04:47;6.23;;;4.23;;
3791;SDS011;1911;53.768;11.474;2024-03-06T09:07:13;8.60;;;5.33;;
3791;SDS011;1911;53.768;11.474;2024-03-06T09:09:39;9.90;;;3.50;;
3791;SDS011;1911;53.768;11.474;2024-03-06T09:12:06;8.50;;;4.90;;
3791;SDS011;1911;53.768;11.474;2024-03-06T09:14:35;5.30;;;3.70;;
3791;SDS011;1911;53.768;11.474;2024-03-06T09:17:04;5.20;;;4.03;;
3791;SDS011;1911;53.768;11.474;2024-03-06T09:19:31;5.37;;;4.33;;
3791;SDS011;1911;53.768;11.474;2024-03-06T09:21:57;6.10;;;4.30;;
3791;SDS011;1911;53.768;11.474;2024-03-06T09:24:23;6.23;;;3.83;;
3791;SDS011;1911;53.768;11.474;2024-03-06T09:26:50;6.70;;;4.57;;
3791;SDS011;1911;53.768;11.474;2024-03-06T09:29:16;6.10;;;3.63;;
3791;SDS011;1911;53.768;11.474;2024-03-06T09:31:42;7.00;;;4.37;;
3791;SDS011;1911;53.768;11.474;2024-03-06T09:34:08;5.60;;;4.47;;
3791;SDS011;1911;53.768;11.474;2024-03-06T09:36:41;5.47;;;4.33;;
3791;SDS011;1911;53.768;11.474;2024-03-06T09:39:17;6.30;;;4.00;;
3791;SDS011;1911;53.768;11.474;2024-03-06T09:41:48;4.93;;;4.17;;
3791;SDS011;1911;53.768;11.474;2024-03-06T09:44:15;6.53;;;4.10;;
3791;SDS011;1911;53.768;11.474;2024-03-06T09:46:44;6.40;;;4.50;;
3791;SDS011;1911;53.768;11.474;2024-03-06T09:49:11;6.07;;;4.47;;
3791;SDS011;1911;53.768;11.474;2024-03-06T09:51:41;4.53;;;3.43;;
3791;SDS011;1911;53.768;11.474;2024-03-06T09:54:10;7.10;;;4.60;;
3791;SDS011;1911;53.768;11.474;2024-03-06T09:56:38;6.10;;;4.80;;
3791;SDS011;1911;53.768;11.474;2024-03-06T09:59:04;6.73;;;4.40;;
3791;SDS011;1911;53.768;11.474;2024-03-06T10:01:29;7.30;;;4.17;;
3791;SDS011;1911;53.768;11.474;2024-03-06T10:03:56;5.33;;;3.50;;
3791;SDS011;1911;53.768;11.474;2024-03-06T10:06:22;6.67;;;4.03;;
3791;SDS011;1911;53.768;11.474;2024-03-06T10:08:48;7.70;;;4.97;;
3791;SDS011;1911;53.768;11.474;2024-03-06T10:11:14;4.50;;;3.70;;
3791;SDS011;1911;53.768;11.474;2024-03-06T10:13:42;7.10;;;5.00;;
3791;SDS011;1911;53.768;11.474;2024-03-06T10:16:07;5.53;;;3.97;;
3791;SDS011;1911;53.768;11.474;2024-03-06T10:18:35;6.73;;;4.50;;
3791;SDS011;1911;53.768;11.474;2024-03-06T10:21:01;4.83;;;3.30;;
3791;SDS011;1911;53.768;11.474;2024-03-06T10:23:27;6.47;;;3.83;;
3791;SDS011;1911;53.768;11.474;2024-03-06T10:25:55;5.80;;;4.23;;
3791;SDS011;1911;53.768;11.474;2024-03-06T10:28:21;5.27;;;3.80;;
3791;SDS011;1911;53.768;11.474;2024-03-06T10:30:48;5.93;;;3.90;;
3791;SDS011;1911;53.768;11.474;2024-03-06T10:33:15;4.23;;;3.50;;
3791;SDS011;1911;53.768;11.474;2024-03-06T10:35:44;7.30;;;4.57;;
3791;SDS011;1911;53.768;11.474;2024-03-06T10:38:11;5.33;;;4.63;;
3791;SDS011;1911;53.768;11.474;2024-03-06T10:40:37;5.37;;;4.13;;
3791;SDS011;1911;53.768;11.474;2024-03-06T10:43:04;6.60;;;4.10;;
3791;SDS011;1911;53.768;11.474;2024-03-06T10:48:13;6.50;;;4.23;;
3791;SDS011;1911;53.768;11.474;2024-03-06T10:50:40;5.33;;;4.20;;
3791;SDS011;1911;53.768;11.474;2024-03-06T10:53:08;6.37;;;4.13;;
3791;SDS011;1911;53.768;11.474;2024-03-06T10:55:38;4.63;;;3.60;;
3791;SDS011;1911;53.768;11.474;2024-03-06T10:58:05;5.27;;;4.00;;
3791;SDS011;1911;53.768;11.474;2024-03-06T11:00:42;5.33;;;4.00;;
3791;SDS011;1911;53.768;11.474;2024-03-06T11:03:15;6.43;;;4.20;;
3791;SDS011;1911;53.768;11.474;2024-03-06T11:05:41;7.00;;;4.33;;
3791;SDS011;1911;53.768;11.474;2024-03-06T11:08:09;6.13;;;4.00;;
3791;SDS011;1911;53.768;11.474;2024-03-06T11:10:37;5.53;;;4.47;;
3791;SDS011;1911;53.768;11.474;2024-03-06T11:13:04;6.27;;;4.60;;
3791;SDS011;1911;53.768;11.474;2024-03-06T11:15:57;6.00;;;4.43;;
3791;SDS011;1911;53.768;11.474;2024-03-06T11:20:59;5.63;;;4.40;;
3791;SDS011;1911;53.768;11.474;2024-03-06T11:23:28;6.90;;;4.50;;
3791;SDS011;1911;53.768;11.474;2024-03-06T11:28:21;5.67;;;4.00;;
3791;SDS011;1911;53.768;11.474;2024-03-06T11:30:48;5.67;;;3.80;;
3791;SDS011;1911;53.768;11.474;2024-03-06T11:33:20;4.50;;;3.60;;
3791;SDS011;1911;53.768;11.474;2024-03-06T11:44:00;4.70;;;3.30;;
3791;SDS011;1911;53.768;11.474;2024-03-06T11:49:16;5.67;;;4.20;;
3791;SDS011;1911;53.768;11.474;2024-03-06T11:51:45;6.70;;;4.37;;
3791;SDS011;1911;53.768;11.474;2024-03-06T11:54:12;6.47;;;4.70;;
3791;SDS011;1911;53.768;11.474;2024-03-06T11:56:39;5.87;;;4.03;;
3791;SDS011;1911;53.768;11.474;2024-03-06T11:59:05;6.90;;;4.60;;
3791;SDS011;1911;53.768;11.474;2024-03-06T12:01:34;6.30;;;3.97;;
3791;SDS011;1911;53.768;11.474;2024-03-06T12:04:01;5.07;;;3.80;;
3791;SDS011;1911;53.768;11.474;2024-03-06T12:06:29;6.80;;;4.10;;
3791;SDS011;1911;53.768;11.474;2024-03-06T12:08:54;7.37;;;4.17;;
3791;SDS011;1911;53.768;11.474;2024-03-06T12:11:20;4.90;;;3.70;;
3791;SDS011;1911;53.768;11.474;2024-03-06T12:13:47;5.70;;;3.93;;
3791;SDS011;1911;53.768;11.474;2024-03-06T12:16:13;5.97;;;3.60;;
3791;SDS011;1911;53.768;11.474;2024-03-06T12:18:39;5.53;;;3.73;;
3791;SDS011;1911;53.768;11.474;2024-03-06T12:21:05;5.03;;;3.90;;
3791;SDS011;1911;53.768;11.474;2024-03-06T12:23:30;6.57;;;4.47;;
3791;SDS011;1911;53.768;11.474;2024-03-06T12:26:06;6.87;;;3.20;;
3791;SDS011;1911;53.768;11.474;2024-03-06T12:28:39;6.20;;;3.80;;
3791;SDS011;1911;53.768;11.474;2024-03-06T12:31:05;4.30;;;3.90;;
3791;SDS011;1911;53.768;11.474;2024-03-06T12:33:32;6.03;;;4.43;;
3791;SDS011;1911;53.768;11.474;2024-03-06T12:36:08;8.97;;;4.07;;
3791;SDS011;1911;53.768;11.474;2024-03-06T12:38:37;6.50;;;4.27;;
3791;SDS011;1911;53.768;11.474;2024-03-06T12:41:02;6.57;;;4.40;;
3791;SDS011;1911;53.768;11.474;2024-03-06T12:43:29;7.83;;;3.90;;
3791;SDS011;1911;53.768;11.474;2024-03-06T12:45:55;8.40;;;4.87;;
3791;SDS011;1911;53.768;11.474;2024-03-06T12:48:22;6.13;;;4.37;;
3791;SDS011;1911;53.768;11.474;2024-03-06T12:50:48;5.10;;;3.80;;
3791;SDS011;1911;53.768;11.474;2024-03-06T12:53:17;5.10;;;4.17;;
3791;SDS011;1911;53.768;11.474;2024-03-06T12:55:43;7.10;;;4.20;;
3791;SDS011;1911;53.768;11.474;2024-03-06T12:58:10;6.53;;;4.33;;
3791;SDS011;1911;53.768;11.474;2024-03-06T13:00:36;4.80;;;3.87;;
3791;SDS011;1911;53.768;11.474;2024-03-06T13:03:03;6.57;;;4.80;;
3791;SDS011;1911;53.768;11.474;2024-03-06T13:05:35;3.57;;;3.20;;
3791;SDS011;1911;53.768;11.474;2024-03-06T13:08:00;7.00;;;4.70;;
3791;SDS011;1911;53.768;11.474;2024-03-06T13:10:26;5.40;;;4.50;;
3791;SDS011;1911;53.768;11.474;2024-03-06T13:12:51;6.60;;;3.90;;
3791;SDS011;1911;53.768;11.474;2024-03-06T13:15:17;5.00;;;3.67;;
3791;SDS011;1911;53.768;11.474;2024-03-06T13:17:43;5.83;;;4.13;;
3791;SDS011;1911;53.768;11.474;2024-03-06T13:20:08;4.37;;;3.60;;
3791;SDS011;1911;53.768;11.474;2024-03-06T13:22:36;5.57;;;4.23;;
3791;SDS011;1911;53.768;11.474;2024-03-06T13:25:02;7.17;;;4.07;;
3791;SDS011;1911;53.768;11.474;2024-03-06T13:27:29;6.50;;;4.60;;
3791;SDS011;1911;53.768;11.474;2024-03-06T13:29:55;6.70;;;4.40;;
3791;SDS011;1911;53.768;11.474;2024-03-06T13:32:21;7.23;;;5.20;;
3791;SDS011;1911;53.768;11.474;2024-03-06T13:34:47;6.90;;;5.13;;
3791;SDS011;1911;53.768;11.474;2024-03-06T13:37:13;6.07;;;4.70;;
3791;SDS011;1911;53.768;11.474;2024-03-06T13:39:39;6.90;;;4.40;;
3791;SDS011;1911;53.768;11.474;2024-03-06T13:42:05;6.57;;;4.77;;
3791;SDS011;1911;53.768;11.474;2024-03-06T13:44:31;8.57;;;5.50;;
3791;SDS011;1911;53.768;11.474;2024-03-06T13:46:57;7.00;;;4.17;;
3791;SDS011;1911;53.768;11.474;2024-03-06T13:52:06;6.97;;;4.60;;
3791;SDS011;1911;53.768;11.474;2024-03-06T13:54:40;8.87;;;5.70;;
3791;SDS011;1911;53.768;11.474;2024-03-06T13:57:07;7.37;;;5.17;;
3791;SDS011;1911;53.768;11.474;2024-03-06T13:59:33;8.00;;;5.00;;
3791;SDS011;1911;53.768;11.474;2024-03-06T14:02:00;8.00;;;5.13;;
3791;SDS011;1911;53.768;11.474;2024-03-06T14:04:26;7.40;;;4.33;;
3791;SDS011;1911;53.768;11.474;2024-03-06T14:06:52;8.63;;;4.87;;
3791;SDS011;1911;53.768;11.474;2024-03-06T14:09:18;6.53;;;4.43;;
3791;SDS011;1911;53.768;11.474;2024-03-06T14:11:44;7.80;;;5.07;;
3791;SDS011;1911;53.768;11.474;2024-03-06T14:14:09;9.17;;;5.00;;
3791;SDS011;1911;53.768;11.474;2024-03-06T14:16:36;6.50;;;4.60;;
3791;SDS011;1911;53.768;11.474;2024-03-06T14:19:02;6.90;;;4.10;;
3791;SDS011;1911;53.768;11.474;2024-03-06T14:21:29;6.27;;;4.57;;
3791;SDS011;1911;53.768;11.474;2024-03-06T14:23:56;6.80;;;4.80;;
3791;SDS011;1911;53.768;11.474;2024-03-06T14:26:23;7.10;;;4.67;;
3791;SDS011;1911;53.768;11.474;2024-03-06T14:28:48;7.50;;;4.50;;
3791;SDS011;1911;53.768;11.474;2024-03-06T14:31:14;6.70;;;4.50;;
3791;SDS011;1911;53.768;11.474;2024-03-06T14:33:40;7.93;;;5.27;;
3791;SDS011;1911;53.768;11.474;2024-03-06T14:36:06;8.77;;;5.97;;
3791;SDS011;1911;53.768;11.474;2024-03-06T14:38:31;9.13;;;5.17;;
3791;SDS011;1911;53.768;11.474;2024-03-06T14:40:57;9.77;;;5.80;;
3791;SDS011;1911;53.768;11.474;2024-03-06T15:32:30;11.80;;;6.83;;
3791;SDS011;1911;53.768;11.474;2024-03-06T15:34:55;10.30;;;6.80;;
3791;SDS011;1911;53.768;11.474;2024-03-06T15:37:23;7.97;;;6.07;;
3791;SDS011;1911;53.768;11.474;2024-03-06T15:39:51;10.10;;;6.07;;
3791;SDS011;1911;53.768;11.474;2024-03-06T15:42:18;10.70;;;7.17;;
3791;SDS011;1911;53.768;11.474;2024-03-06T15:44:43;11.63;;;7.73;;
3791;SDS011;1911;53.768;11.474;2024-03-06T15:47:09;13.80;;;9.80;;
3791;SDS011;1911;53.768;11.474;2024-03-06T15:49:35;15.57;;;10.37;;
3791;SDS011;1911;53.768;11.474;2024-03-06T15:52:00;16.80;;;9.50;;
3791;SDS011;1911;53.768;11.474;2024-03-06T15:54:26;15.90;;;9.73;;
3791;SDS011;1911;53.768;11.474;2024-03-06T15:56:51;11.90;;;8.87;;
3791;SDS011;1911;53.768;11.474;2024-03-06T15:59:17;13.80;;;9.17;;
3791;SDS011;1911;53.768;11.474;2024-03-06T16:01:43;14.50;;;8.83;;
3791;SDS011;1911;53.768;11.474;2024-03-06T16:04:09;18.40;;;11.77;;
3791;SDS011;1911;53.768;11.474;2024-03-06T16:06:35;17.47;;;11.30;;
3791;SDS011;1911;53.768;11.474;2024-03-06T16:09:01;16.43;;;9.13;;
3791;SDS011;1911;53.768;11.474;2024-03-06T16:11:27;14.83;;;9.77;;